Time;durP1;ratioP1;P1;durP2;ratioP2;P2;SDS_P1;SDS_P2;PMS_P1;PMS_P2;Temp;Humidity;BMP_temperature;BMP_pressure;BME280_temperature;BME280_humidity;BME280_pressure;Samples;Min_cycle;Max_cycle;Signal;HPM_P1;HPM_P2
2022/11/18 00:01:24;;;;;;;0.98;0.40;;;9.70;99.90;;;;;;5073230;28;20032;-70
2022/11/18 00:03:51;;;;;;;0.45;0.20;;;9.70;99.90;;;;;;5072819;28;20406;-72
2022/11/18 00:06:23;;;;;;;0.95;0.38;;;9.70;99.90;;;;;;5074134;28;20444;-67
2022/11/18 00:08:49;;;;;;;2.10;0.40;;;9.70;99.90;;;;;;5074109;28;20083;-67
2022/11/18 00:14:18;;;;;;;1.52;0.50;;;9.50;99.90;;;;;;5074134;28;20090;-70
2022/11/18 00:16:56;;;;;;;0.60;0.20;;;9.50;99.90;;;;;;5072307;28;20044;-72
2022/11/18 00:19:30;;;;;;;1.30;0.40;;;9.40;99.90;;;;;;5072042;28;20411;-68
2022/11/18 00:21:56;;;;;;;0.82;0.30;;;9.40;99.90;;;;;;5073638;28;20041;-70
2022/11/18 00:24:23;;;;;;;1.13;0.20;;;9.40;99.90;;;;;;5073656;28;20048;-72
2022/11/18 00:26:49;;;;;;;0.40;0.10;;;9.30;99.90;;;;;;5072824;28;20393;-72
2022/11/18 00:29:15;;;;;;;0.63;0.30;;;9.40;99.90;;;;;;5072498;28;20131;-73
2022/11/18 00:31:41;;;;;;;2.45;0.22;;;9.40;99.90;;;;;;5072194;28;20041;-68
2022/11/18 00:34:12;;;;;;;0.40;0.10;;;9.30;99.90;;;;;;5072294;28;20040;-68
2022/11/18 00:36:39;;;;;;;0.25;0.10;;;9.20;99.90;;;;;;5073345;28;20400;-71
2022/11/18 00:39:05;;;;;;;1.83;0.10;;;9.20;99.90;;;;;;5073385;28;20101;-67
2022/11/18 00:44:15;;;;;;;0.30;0.10;;;9.10;99.90;;;;;;5073309;28;20071;-66
2022/11/18 00:46:41;;;;;;;0.82;0.17;;;9.10;99.90;;;;;;5073773;28;20427;-67
2022/11/18 00:49:07;;;;;;;0.40;0.10;;;9.10;99.90;;;;;;5073785;28;20040;-70
2022/11/18 00:51:33;;;;;;;2.08;0.10;;;9.10;99.90;;;;;;5073799;28;20051;-67
2022/11/18 00:53:59;;;;;;;2.03;0.17;;;9.10;99.90;;;;;;5073727;28;20512;-67
2022/11/18 00:56:25;;;;;;;0.45;0.10;;;9.00;99.90;;;;;;5072212;28;20052;-67
2022/11/18 00:58:50;;;;;;;0.13;0.10;;;8.80;99.90;;;;;;5072698;28;20044;-68
2022/11/18 01:01:16;;;;;;;0.35;0.20;;;8.80;99.90;;;;;;5073720;28;20040;-72
2022/11/18 01:03:42;;;;;;;2.38;0.28;;;8.90;99.90;;;;;;5073508;28;20044;-72
2022/11/18 01:06:08;;;;;;;2.17;0.40;;;8.90;99.90;;;;;;5073583;28;20471;-72
2022/11/18 01:08:34;;;;;;;3.45;0.30;;;8.80;99.90;;;;;;5073168;28;20033;-67
2022/11/18 01:13:17;;;;;;;0.50;0.00;;;8.80;99.90;;;;;;5072095;28;20050;-71
2022/11/18 01:13:49;;;;;;;10.25;0.63;;;8.80;99.90;;;;;;5073434;28;20051;-67
2022/11/18 01:16:18;;;;;;;0.60;0.20;;;8.70;99.90;;;;;;5072353;28;20381;-72
2022/11/18 01:18:44;;;;;;;0.63;0.25;;;8.70;99.90;;;;;;5073365;28;20419;-67
2022/11/18 01:21:10;;;;;;;0.82;0.20;;;8.70;99.90;;;;;;5072112;28;20063;-71
2022/11/18 01:23:36;;;;;;;0.10;0.10;;;8.70;99.90;;;;;;5073261;28;20069;-71
2022/11/18 01:26:06;;;;;;;0.30;0.20;;;8.80;99.90;;;;;;5073713;28;20135;-67
2022/11/18 01:28:33;;;;;;;0.22;0.10;;;8.80;99.90;;;;;;5073413;28;20518;-71
2022/11/18 01:31:10;;;;;;;0.68;0.30;;;8.80;99.90;;;;;;5074561;28;20047;-72
2022/11/18 01:33:36;;;;;;;0.30;0.10;;;8.90;99.90;;;;;;5075792;28;20032;-70
2022/11/18 01:36:02;;;;;;;2.72;0.20;;;9.00;99.90;;;;;;5077020;28;20024;-72
2022/11/18 01:38:28;;;;;;;0.55;0.10;;;9.00;99.90;;;;;;5075258;28;20044;-71
2022/11/18 01:40:55;;;;;;;0.20;0.10;;;9.00;99.90;;;;;;5068823;28;20127;-72
2022/11/18 01:43:22;;;;;;;2.33;0.20;;;9.00;99.90;;;;;;5055284;28;20036;-67
2022/11/18 01:45:50;;;;;;;0.68;0.00;;;9.00;99.90;;;;;;5057081;28;20497;-68
2022/11/18 01:48:23;;;;;;;0.85;0.13;;;9.10;99.90;;;;;;5055573;28;20127;-71
2022/11/18 01:50:53;;;;;;;0.13;0.00;;;9.00;99.90;;;;;;5056873;28;20075;-67
2022/11/18 01:53:26;;;;;;;1.25;0.40;;;9.00;99.90;;;;;;5056815;28;20037;-71
2022/11/18 01:55:54;;;;;;;0.88;0.20;;;9.10;99.90;;;;;;5056716;28;20037;-67
2022/11/18 01:58:29;;;;;;;1.17;0.20;;;9.00;99.90;;;;;;5056656;28;20049;-71
2022/11/18 02:00:55;;;;;;;0.82;0.13;;;9.00;99.90;;;;;;5056739;28;20068;-72
2022/11/18 02:03:22;;;;;;;2.35;0.20;;;9.00;99.90;;;;;;5056461;28;20072;-71
2022/11/18 02:05:49;;;;;;;1.17;0.20;;;9.00;99.90;;;;;;5056556;28;20053;-72
2022/11/18 02:08:17;;;;;;;0.52;0.20;;;9.00;99.90;;;;;;5056575;28;20123;-72
2022/11/18 02:10:43;;;;;;;1.88;0.38;;;9.00;99.90;;;;;;5055001;28;20037;-71
2022/11/18 02:13:10;;;;;;;0.88;0.20;;;9.00;99.90;;;;;;5056426;28;20600;-72
2022/11/18 02:16:20;;;;;;;0.82;0.30;;;9.00;99.90;;;;;;5067912;28;20048;-67
2022/11/18 02:19:21;;;;;;;0.70;0.30;;;8.90;99.90;;;;;;5075051;28;20036;-67
2022/11/18 02:22:11;;;;;;;0.15;0.10;;;8.80;99.90;;;;;;5076138;28;20041;-71
2022/11/18 02:24:49;;;;;;;0.30;0.20;;;8.90;99.90;;;;;;5076201;28;20040;-72
2022/11/18 02:27:21;;;;;;;0.95;0.20;;;8.80;99.90;;;;;;5076233;28;20039;-72
2022/11/18 02:30:09;;;;;;;2.35;0.32;;;8.80;99.90;;;;;;5076138;28;20036;-71
2022/11/18 02:33:12;;;;;;;0.88;0.20;;;8.70;99.90;;;;;;5076109;28;20036;-67
2022/11/18 02:35:58;;;;;;;0.47;0.30;;;8.80;99.90;;;;;;5050860;28;20040;-71
2022/11/18 02:38:33;;;;;;;2.20;0.43;;;8.80;99.90;;;;;;5075742;28;20076;-72
2022/11/18 02:41:07;;;;;;;0.60;0.30;;;8.80;99.90;;;;;;5075896;28;20036;-72
2022/11/18 02:43:34;;;;;;;0.17;0.10;;;8.80;99.90;;;;;;5075450;28;20063;-72
2022/11/18 02:46:07;;;;;;;0.47;0.20;;;8.80;99.90;;;;;;5075781;28;20408;-72
2022/11/18 02:48:38;;;;;;;0.30;0.20;;;8.70;99.90;;;;;;5074340;28;20178;-72
2022/11/18 02:51:08;;;;;;;1.73;0.20;;;8.70;99.90;;;;;;5075688;28;20492;-72
2022/11/18 02:53:37;;;;;;;3.00;0.20;;;8.70;99.90;;;;;;5075612;28;20048;-73
2022/11/18 02:56:04;;;;;;;2.72;0.25;;;8.80;99.90;;;;;;5075793;28;20037;-72
2022/11/18 02:58:30;;;;;;;0.70;0.10;;;8.80;99.90;;;;;;5074200;28;20040;-72
2022/11/18 03:00:58;;;;;;;0.80;0.28;;;8.80;99.90;;;;;;5075034;28;20044;-72
2022/11/18 03:03:28;;;;;;;1.38;0.40;;;8.80;99.90;;;;;;5074009;28;20081;-66
2022/11/18 03:06:01;;;;;;;0.70;0.20;;;8.80;99.90;;;;;;5075381;28;20079;-72
2022/11/18 03:08:35;;;;;;;1.30;0.20;;;8.90;99.90;;;;;;5074012;28;20062;-69
2022/11/18 03:11:14;;;;;;;0.30;0.20;;;8.80;99.90;;;;;;5074013;28;20375;-72
2022/11/18 03:14:13;;;;;;;1.75;0.20;;;8.90;99.90;;;;;;5075141;28;20460;-72
2022/11/18 03:16:46;;;;;;;2.20;0.22;;;8.90;99.90;;;;;;5075039;28;20380;-72
2022/11/18 03:19:44;;;;;;;1.55;0.30;;;8.80;99.90;;;;;;5073843;28;20049;-72
2022/11/18 03:22:18;;;;;;;0.43;0.20;;;8.80;99.90;;;;;;5057065;28;20127;-71
2022/11/18 03:24:59;;;;;;;1.45;0.20;;;8.80;99.90;;;;;;5073542;28;20535;-72
2022/11/18 03:27:28;;;;;;;;;;;8.80;99.90;;;;;;5074159;28;20036;-72
2022/11/18 03:30:02;;;;;;;0.95;0.30;;;8.90;99.90;;;;;;5075033;28;19939;-72
2022/11/18 03:32:32;;;;;;;1.25;0.80;;;8.90;99.90;;;;;;5074830;28;20119;-69
2022/11/18 03:35:21;;;;;;;1.30;0.32;;;8.90;99.90;;;;;;5073609;28;20049;-72
2022/11/18 03:37:51;;;;;;;1.88;0.32;;;8.90;99.90;;;;;;5074619;28;20040;-71
2022/11/18 03:40:29;;;;;;;2.30;0.63;;;8.90;99.90;;;;;;5074490;28;20492;-72
2022/11/18 03:43:21;;;;;;;1.02;0.17;;;8.90;99.90;;;;;;5073586;28;20037;-70
2022/11/18 03:46:06;;;;;;;0.85;0.40;;;8.80;99.90;;;;;;5074376;28;20047;-66
2022/11/18 03:48:40;;;;;;;1.45;0.10;;;8.80;99.90;;;;;;5073514;28;20025;-72
2022/11/18 03:51:10;;;;;;;0.20;0.10;;;8.80;99.90;;;;;;5074590;28;20049;-73
2022/11/18 03:53:40;;;;;;;1.75;0.20;;;8.70;99.90;;;;;;5073465;28;20040;-74
2022/11/18 03:56:13;;;;;;;0.55;0.10;;;8.70;99.90;;;;;;5074499;28;20039;-74
2022/11/18 03:58:44;;;;;;;1.30;0.20;;;8.70;99.90;;;;;;5074356;28;20029;-74
2022/11/18 04:01:37;;;;;;;0.98;0.20;;;8.80;99.90;;;;;;5074398;28;20495;-68
2022/11/18 04:04:03;;;;;;;0.25;0.20;;;8.80;99.90;;;;;;5072871;28;20052;-70
2022/11/18 04:06:40;;;;;;;1.88;0.20;;;8.80;99.90;;;;;;5073104;28;20094;-73
2022/11/18 04:09:15;;;;;;;0.32;0.13;;;8.80;99.90;;;;;;5074355;28;20068;-73
2022/11/18 04:12:02;;;;;;;0.75;0.28;;;8.70;99.90;;;;;;5073577;28;20072;-73
2022/11/18 04:14:54;;;;;;;1.65;0.10;;;8.70;99.90;;;;;;5074163;28;20048;-73
2022/11/18 04:17:22;;;;;;;1.67;0.52;;;8.70;99.90;;;;;;5074213;28;20519;-72
2022/11/18 04:19:49;;;;;;;1.13;0.13;;;8.60;99.90;;;;;;5072741;28;20055;-73
2022/11/18 04:22:15;;;;;;;1.58;0.50;;;8.40;99.90;;;;;;5073992;28;20143;-72
2022/11/18 04:24:40;;;;;;;4.30;0.47;;;8.50;99.90;;;;;;5072647;28;20052;-73
2022/11/18 04:27:07;;;;;;;2.83;0.45;;;8.40;99.90;;;;;;5074126;28;20558;-73
2022/11/18 04:29:33;;;;;;;0.32;0.20;;;8.40;99.90;;;;;;5072709;28;20044;-73
2022/11/18 04:32:00;;;;;;;1.08;0.22;;;8.40;99.90;;;;;;5089401;28;20033;-71
2022/11/18 04:34:27;;;;;;;2.03;0.40;;;8.40;99.90;;;;;;5073967;28;20055;-73
2022/11/18 04:36:52;;;;;;;3.35;0.43;;;8.40;99.90;;;;;;5089525;28;20086;-74
2022/11/18 04:39:18;;;;;;;0.40;0.25;;;8.30;99.90;;;;;;5073884;28;20040;-73
2022/11/18 04:41:56;;;;;;;2.17;0.30;;;8.30;99.90;;;;;;5074052;28;20507;-73
2022/11/18 04:44:28;;;;;;;1.10;0.35;;;8.30;99.90;;;;;;5073816;28;20480;-72
2022/11/18 04:46:55;;;;;;;1.70;0.20;;;8.30;99.90;;;;;;5073862;28;20559;-73
2022/11/18 04:49:21;;;;;;;2.30;0.20;;;8.20;99.90;;;;;;5073780;28;20037;-72
2022/11/18 04:51:47;;;;;;;0.60;0.20;;;8.10;99.90;;;;;;5073752;28;20070;-73
2022/11/18 04:54:14;;;;;;;0.35;0.10;;;8.20;99.90;;;;;;5073899;28;20040;-72
2022/11/18 04:56:41;;;;;;;0.47;0.25;;;8.20;99.90;;;;;;5073780;28;20064;-70
2022/11/18 04:59:07;;;;;;;3.25;0.25;;;8.10;99.90;;;;;;5072648;28;20553;-72
2022/11/18 05:01:33;;;;;;;1.73;0.32;;;8.00;99.90;;;;;;5073654;28;20033;-72
2022/11/18 05:04:00;;;;;;;1.75;0.40;;;8.00;99.90;;;;;;5073071;28;20557;-72
2022/11/18 05:06:27;;;;;;;1.65;0.20;;;8.20;99.90;;;;;;5076843;28;20063;-71
2022/11/18 05:08:53;;;;;;;1.85;0.55;;;8.20;99.90;;;;;;5077595;28;20044;-66
2022/11/18 05:14:04;;;;;;;2.30;0.40;;;8.20;99.90;;;;;;5077552;28;20090;-72
2022/11/18 05:16:29;;;;;;;4.70;0.40;;;8.20;99.90;;;;;;5077453;28;20171;-72
2022/11/18 05:18:55;;;;;;;1.30;0.30;;;8.20;99.90;;;;;;5076013;28;20048;-66
2022/11/18 05:21:21;;;;;;;2.13;0.45;;;8.20;99.90;;;;;;5077424;28;20036;-72
2022/11/18 05:23:47;;;;;;;0.73;0.28;;;8.20;99.90;;;;;;5077282;28;20044;-71
2022/11/18 05:26:13;;;;;;;1.60;0.35;;;;;;;;;;5077295;28;20403;-72
2022/11/18 05:28:39;;;;;;;2.55;0.30;;;7.90;99.90;;;;;;5077319;28;20119;-72
2022/11/18 05:31:15;;;;;;;0.70;0.47;;;8.00;99.90;;;;;;5077095;28;20117;-72
2022/11/18 05:33:42;;;;;;;2.03;0.28;;;8.10;99.90;;;;;;5075694;28;20055;-73
2022/11/18 05:36:11;;;;;;;2.83;0.30;;;8.10;99.90;;;;;;5077064;28;20036;-72
2022/11/18 05:38:37;;;;;;;3.30;0.30;;;8.10;99.90;;;;;;5075636;28;20445;-70
2022/11/18 05:41:03;;;;;;;3.55;0.60;;;8.20;99.90;;;;;;5076911;28;20036;-67
2022/11/18 05:43:30;;;;;;;3.35;0.50;;;8.10;99.90;;;;;;5073793;28;20048;-71
2022/11/18 05:45:56;;;;;;;1.25;0.25;;;8.10;99.90;;;;;;5062576;28;20045;-69
2022/11/18 05:48:23;;;;;;;3.47;0.70;;;8.10;99.90;;;;;;5054530;28;20504;-69
2022/11/18 05:50:50;;;;;;;2.42;0.57;;;8.10;99.90;;;;;;5056714;28;20091;-72
2022/11/18 05:53:18;;;;;;;3.58;0.93;;;8.00;99.90;;;;;;5055490;28;20132;-72
2022/11/18 05:56:03;;;;;;;1.35;0.65;;;8.00;99.90;;;;;;5055415;28;20132;-72
2022/11/18 05:58:29;;;;;;;1.88;0.70;;;8.10;99.90;;;;;;5056567;28;20116;-72
2022/11/18 06:00:57;;;;;;;2.55;0.80;;;8.00;99.90;;;;;;5056661;28;20045;-73
2022/11/18 06:03:28;;;;;;;2.30;0.52;;;8.10;99.90;;;;;;5056511;28;20397;-73
2022/11/18 06:05:57;;;;;;;1.80;0.55;;;8.10;99.90;;;;;;5070469;28;20111;-67
2022/11/18 06:08:29;;;;;;;1.83;0.40;;;8.10;99.90;;;;;;5075163;28;20040;-72
2022/11/18 06:10:55;;;;;;;1.40;0.40;;;8.10;99.90;;;;;;5075717;28;20127;-66
2022/11/18 06:13:28;;;;;;;1.48;0.40;;;8.10;99.90;;;;;;5076384;28;20551;-72
2022/11/18 06:15:55;;;;;;;2.95;0.40;;;7.90;99.90;;;;;;5075741;28;20091;-66
2022/11/18 06:18:23;;;;;;;1.63;0.45;;;8.10;99.90;;;;;;5075658;28;20068;-66
2022/11/18 06:20:53;;;;;;;1.88;0.40;;;8.20;99.90;;;;;;5076275;28;20040;-73
2022/11/18 06:23:19;;;;;;;2.53;0.55;;;8.10;99.90;;;;;;5076261;28;20116;-73
2022/11/18 06:25:46;;;;;;;3.95;0.82;;;7.90;99.90;;;;;;5076116;28;20059;-73
2022/11/18 06:28:14;;;;;;;3.65;0.50;;;8.00;99.90;;;;;;5076104;28;20036;-73
2022/11/18 06:30:40;;;;;;;1.20;0.32;;;8.00;99.90;;;;;;5076080;28;20036;-73
2022/11/18 06:33:07;;;;;;;1.58;0.60;;;8.00;99.90;;;;;;5075048;28;20115;-73
2022/11/18 06:35:33;;;;;;;2.38;0.63;;;8.00;99.90;;;;;;5075906;28;20457;-66
2022/11/18 06:37:58;;;;;;;2.30;0.60;;;8.10;99.90;;;;;;5074371;28;20072;-72
2022/11/18 06:40:25;;;;;;;1.67;0.85;;;8.10;99.90;;;;;;5074520;28;20523;-73
2022/11/18 06:45:35;;;;;;;2.20;0.40;;;8.20;99.90;;;;;;5075645;28;20083;-73
2022/11/18 06:48:03;;;;;;;1.13;0.52;;;8.10;99.90;;;;;;5075785;28;21037;-73
2022/11/18 06:50:29;;;;;;;2.42;0.55;;;8.10;99.90;;;;;;5075675;28;20056;-73
2022/11/18 06:52:55;;;;;;;3.67;0.52;;;8.10;99.90;;;;;;5075627;28;20041;-73
2022/11/18 06:55:21;;;;;;;2.45;0.45;;;8.10;99.90;;;;;;5075547;28;20406;-67
2022/11/18 06:57:46;;;;;;;1.00;0.30;;;8.10;99.90;;;;;;5075606;28;20032;-72
2022/11/18 07:00:13;;;;;;;2.95;0.55;;;8.00;99.90;;;;;;5075045;28;20403;-72
2022/11/18 07:02:39;;;;;;;3.58;0.50;;;8.10;99.90;;;;;;5075656;28;20089;-74
2022/11/18 07:05:05;;;;;;;1.77;0.45;;;8.10;99.90;;;;;;5075198;28;20060;-74
2022/11/18 07:07:34;;;;;;;3.03;0.50;;;8.00;99.90;;;;;;5075178;28;20033;-69
2022/11/18 07:10:00;;;;;;;3.35;0.70;;;8.00;99.90;;;;;;5075395;28;20040;-72
2022/11/18 07:12:26;;;;;;;3.17;0.60;;;8.10;99.90;;;;;;5075253;28;20139;-75
2022/11/18 07:14:51;;;;;;;1.92;0.38;;;8.00;99.90;;;;;;5072755;28;20086;-74
2022/11/18 07:17:17;;;;;;;1.08;0.35;;;8.00;99.90;;;;;;5074894;28;20048;-67
2022/11/18 07:19:43;;;;;;;0.82;0.30;;;8.10;99.90;;;;;;5073627;28;20054;-74
2022/11/18 07:22:09;;;;;;;1.85;0.50;;;8.10;99.90;;;;;;5075084;28;20044;-75
2022/11/18 07:24:36;;;;;;;2.75;0.70;;;8.20;99.90;;;;;;5074909;28;20051;-76
2022/11/18 07:27:02;;;;;;;2.05;0.60;;;8.10;99.90;;;;;;5074989;28;20514;-75
2022/11/18 07:29:28;;;;;;;2.55;0.82;;;8.10;99.90;;;;;;5074102;28;20044;-70
2022/11/18 07:31:54;;;;;;;3.67;0.63;;;;;;;;;;5074608;28;20048;-74
2022/11/18 07:34:20;;;;;;;6.15;0.50;;;8.20;99.90;;;;;;5074460;28;20504;-74
2022/11/18 07:36:45;;;;;;;2.13;0.57;;;8.30;99.90;;;;;;5074694;28;20055;-74
2022/11/18 07:39:11;;;;;;;5.57;0.73;;;8.30;99.90;;;;;;5074860;28;20522;-74
2022/11/18 07:41:39;;;;;;;4.65;1.88;;;8.20;99.90;;;;;;5074634;28;20039;-76
2022/11/18 07:44:06;;;;;;;2.03;1.02;;;8.20;99.90;;;;;;5073270;28;20115;-76
2022/11/18 07:46:35;;;;;;;1.50;0.63;;;8.10;99.90;;;;;;5073439;28;20053;-76
2022/11/18 07:49:07;;;;;;;2.80;1.00;;;8.10;99.90;;;;;;5074494;28;20028;-67
2022/11/18 07:51:35;;;;;;;2.38;0.98;;;8.00;99.90;;;;;;5073227;28;20426;-77
2022/11/18 07:54:06;;;;;;;1.75;0.85;;;8.10;99.90;;;;;;5074402;28;20068;-66
2022/11/18 07:56:32;;;;;;;;;;;8.00;99.90;;;;;;5073527;28;20036;-75
2022/11/18 07:58:57;;;;;;;5.93;1.40;;;8.00;99.90;;;;;;5074544;28;19909;-80
2022/11/18 08:01:27;;;;;;;3.22;1.40;;;7.90;99.90;;;;;;5074381;28;20442;-78
2022/11/18 08:03:53;;;;;;;2.90;1.20;;;7.90;99.90;;;;;;5074354;28;20052;-73
2022/11/18 08:06:20;;;;;;;3.63;1.73;;;7.80;99.90;;;;;;5074357;28;20271;-77
2022/11/18 08:08:46;;;;;;;5.63;0.88;;;7.90;99.90;;;;;;5072569;28;20045;-77
2022/11/18 08:11:14;;;;;;;1.45;0.88;;;7.90;99.90;;;;;;5074220;28;20095;-77
2022/11/18 08:13:40;;;;;;;2.65;1.25;;;7.90;99.90;;;;;;5074290;28;20052;-77
2022/11/18 08:16:15;;;;;;;2.28;0.90;;;7.80;99.90;;;;;;5074137;28;20431;-77
2022/11/18 08:18:41;;;;;;;3.95;0.88;;;7.80;99.90;;;;;;5072818;28;20036;-76
2022/11/18 08:21:08;;;;;;;3.55;1.17;;;7.90;99.90;;;;;;5074697;28;20037;-77
2022/11/18 08:23:33;;;;;;;3.08;1.27;;;7.90;99.90;;;;;;5072815;28;20047;-77
2022/11/18 08:26:23;;;;;;;3.53;1.17;;;7.90;99.90;;;;;;5074009;28;20029;-77
2022/11/18 08:28:49;;;;;;;2.97;1.10;;;7.80;99.90;;;;;;5070233;28;20037;-78
2022/11/18 08:31:16;;;;;;;5.03;1.33;;;7.80;99.90;;;;;;5074000;28;20041;-76
2022/11/18 08:33:43;;;;;;;1.52;0.95;;;7.70;99.90;;;;;;5073909;28;20071;-77
2022/11/18 08:36:16;;;;;;;5.93;2.40;;;7.70;99.90;;;;;;5073900;28;20041;-77
2022/11/18 08:38:42;;;;;;;8.55;4.65;;;7.70;99.90;;;;;;5072702;28;20487;-77
2022/11/18 08:41:14;;;;;;;4.00;2.28;;;7.70;99.90;;;;;;5073216;28;20075;-76
2022/11/18 08:43:41;;;;;;;6.68;2.55;;;7.70;99.90;;;;;;5073782;28;20044;-76
2022/11/18 08:46:07;;;;;;;4.40;1.52;;;7.70;99.90;;;;;;5072640;28;20091;-76
2022/11/18 08:48:33;;;;;;;4.47;1.70;;;7.70;99.90;;;;;;5073860;28;20045;-76
2022/11/18 08:50:59;;;;;;;3.30;1.10;;;7.80;99.90;;;;;;5073708;28;20037;-77
2022/11/18 08:53:25;;;;;;;4.28;2.20;;;7.80;99.90;;;;;;5072226;28;20400;-76
2022/11/18 08:55:58;;;;;;;2.78;1.70;;;7.90;99.90;;;;;;5073523;28;20036;-76
2022/11/18 08:58:25;;;;;;;4.82;1.58;;;7.90;99.90;;;;;;5071216;28;20059;-76
2022/11/18 09:00:51;;;;;;;5.35;1.10;;;7.90;99.90;;;;;;5073977;28;20595;-78
2022/11/18 09:03:17;;;;;;;2.25;1.38;;;8.00;99.90;;;;;;5073830;28;20033;-76
2022/11/18 09:05:43;;;;;;;12.93;5.07;;;8.00;99.90;;;;;;5073623;28;20496;-75
2022/11/18 09:08:09;;;;;;;10.57;6.80;;;8.20;99.90;;;;;;5073510;28;20032;-76
2022/11/18 09:10:36;;;;;;;17.08;10.15;;;8.30;99.90;;;;;;5073523;28;20138;-76
2022/11/18 09:13:03;;;;;;;4.03;1.98;;;8.30;99.90;;;;;;5089028;28;20046;-72
2022/11/18 09:15:30;;;;;;;2.55;1.23;;;8.40;99.90;;;;;;5073594;28;20036;-75
2022/11/18 09:17:58;;;;;;;4.53;1.70;;;8.30;99.90;;;;;;5073609;28;20025;-78
2022/11/18 09:20:24;;;;;;;2.35;0.60;;;8.30;99.90;;;;;;5073586;28;20051;-78
2022/11/18 09:22:50;;;;;;;6.68;4.10;;;8.30;99.90;;;;;;5073535;28;20068;-77
2022/11/18 09:25:15;;;;;;;17.70;8.13;;;8.30;99.90;;;;;;5072454;28;20048;-78
2022/11/18 09:27:41;;;;;;;8.40;3.70;;;8.40;99.90;;;;;;5072116;28;20047;-67
2022/11/18 09:30:08;;;;;;;5.45;1.70;;;8.40;99.90;;;;;;5072133;28;20047;-77
2022/11/18 09:32:34;;;;;;;7.60;3.15;;;8.30;99.90;;;;;;5073430;28;20027;-77
2022/11/18 09:35:00;;;;;;;3.70;2.03;;;8.40;99.90;;;;;;5073253;28;20049;-66
2022/11/18 09:37:25;;;;;;;3.63;1.02;;;8.40;99.90;;;;;;5071853;28;20025;-77
2022/11/18 09:39:51;;;;;;;2.65;1.20;;;8.60;99.90;;;;;;5073435;28;20043;-66
2022/11/18 09:43:14;;;;;;;3.10;1.30;;;8.80;99.90;;;;;;5073441;28;20028;-76
2022/11/18 09:45:47;;;;;;;5.72;2.75;;;8.80;99.90;;;;;;5050780;28;20091;-76
2022/11/18 09:48:18;;;;;;;9.20;3.55;;;9.00;99.90;;;;;;5050951;28;20120;-76
2022/11/18 09:50:44;;;;;;;5.45;1.92;;;9.00;99.90;;;;;;5045123;28;20074;-76
2022/11/18 09:53:21;;;;;;;4.88;1.35;;;9.00;99.90;;;;;;5053720;28;20127;-76
2022/11/18 09:55:49;;;;;;;6.00;2.15;;;8.90;99.90;;;;;;5055449;28;20049;-76
2022/11/18 09:58:21;;;;;;;36.67;14.73;;;9.50;99.90;;;;;;5055213;28;20037;-76
2022/11/18 10:00:47;;;;;;;19.52;9.98;;;9.60;99.90;;;;;;5056718;28;20033;-76
2022/11/18 10:03:32;;;;;;;61.35;29.35;;;9.50;99.90;;;;;;5056661;28;20128;-75
2022/11/18 10:06:23;;;;;;;9.52;5.63;;;9.40;99.90;;;;;;5056380;28;20053;-77
2022/11/18 10:09:07;;;;;;;14.88;6.03;;;9.30;99.90;;;;;;5054213;28;20484;-76
2022/11/18 10:11:45;;;;;;;4.97;2.35;;;9.30;99.90;;;;;;5053973;28;20041;-74
2022/11/18 10:14:16;;;;;;;6.05;2.45;;;9.20;99.90;;;;;;5053797;28;20439;-75
2022/11/18 10:17:03;;;;;;;8.02;2.42;;;9.10;99.90;;;;;;5053879;28;20039;-66
2022/11/18 10:20:15;;;;;;;6.57;2.92;;;9.20;99.90;;;;;;5071075;28;20105;-66
2022/11/18 10:22:55;;;;;;;7.88;2.35;;;9.20;99.90;;;;;;5073272;28;20036;-69
2022/11/18 10:25:21;;;;;;;6.72;1.30;;;9.30;99.90;;;;;;5073420;28;20102;-66
2022/11/18 10:27:49;;;;;;;3.60;1.30;;;9.30;99.90;;;;;;5073822;28;20040;-75
2022/11/18 10:30:18;;;;;;;7.57;2.22;;;9.40;99.90;;;;;;5074511;28;20075;-75
2022/11/18 10:32:55;;;;;;;5.28;1.90;;;9.40;99.90;;;;;;5074376;28;20040;-66
2022/11/18 10:35:37;;;;;;;6.60;2.80;;;9.30;99.90;;;;;;5072546;28;20472;-67
2022/11/18 10:38:15;;;;;;;4.70;1.77;;;9.10;99.90;;;;;;5075248;28;20083;-67
2022/11/18 10:40:50;;;;;;;7.07;2.80;;;9.10;99.90;;;;;;5073874;28;20037;-67
2022/11/18 10:43:48;;;;;;;5.82;3.17;;;9.00;99.90;;;;;;5073841;28;20093;-67
2022/11/18 10:46:34;;;;;;;2.85;1.23;;;9.10;99.90;;;;;;5075171;28;20036;-76
2022/11/18 10:49:21;;;;;;;2.67;1.02;;;9.10;99.90;;;;;;5072707;28;20036;-66
2022/11/18 10:52:04;;;;;;;8.07;1.92;;;9.00;99.90;;;;;;5073403;28;20048;-76
2022/11/18 10:54:30;;;;;;;6.28;1.70;;;9.00;99.90;;;;;;5073399;28;20040;-76
2022/11/18 10:57:05;;;;;;;3.78;1.00;;;9.10;99.90;;;;;;5073833;28;20511;-75
2022/11/18 10:59:49;;;;;;;2.63;1.20;;;9.10;99.90;;;;;;5073330;28;20033;-66
2022/11/18 11:02:34;;;;;;;1.73;0.55;;;9.00;99.90;;;;;;5071988;28;20377;-75
2022/11/18 11:05:19;;;;;;;2.60;1.05;;;9.10;99.90;;;;;;5053197;28;20048;-66
2022/11/18 11:07:44;;;;;;;5.70;1.35;;;9.10;99.90;;;;;;5053447;28;20041;-67
2022/11/18 11:10:11;;;;;;;2.25;0.70;;;9.20;99.90;;;;;;5053130;28;20526;-69
2022/11/18 11:12:47;;;;;;;1.27;0.73;;;9.20;99.90;;;;;;5053030;28;20076;-66
2022/11/18 11:15:26;;;;;;;4.70;1.20;;;9.10;99.90;;;;;;5052736;28;20124;-73
2022/11/18 11:20:53;;;;;;;3.90;1.48;;;9.30;99.90;;;;;;5052945;28;20118;-76
2022/11/18 11:23:21;;;;;;;3.88;1.33;;;9.30;99.90;;;;;;5052687;28;20036;-67
2022/11/18 11:26:00;;;;;;;2.55;0.70;;;9.40;99.90;;;;;;5053093;28;20064;-67
2022/11/18 11:28:37;;;;;;;1.85;0.63;;;9.40;99.90;;;;;;5054990;28;20128;-77
2022/11/18 11:31:16;;;;;;;0.73;0.40;;;9.40;99.90;;;;;;5053106;28;20094;-77
2022/11/18 11:33:55;;;;;;;2.47;1.02;;;9.50;99.90;;;;;;5052798;28;20123;-66
2022/11/18 11:36:28;;;;;;;4.10;1.30;;;9.40;99.90;;;;;;5052600;28;20029;-67
2022/11/18 11:38:59;;;;;;;15.68;7.38;;;9.60;99.90;;;;;;5053175;28;20047;-69
2022/11/18 11:41:48;;;;;;;20.38;11.38;;;9.80;99.90;;;;;;5055073;28;20036;-76
2022/11/18 11:44:41;;;;;;;27.45;14.57;;;9.90;99.90;;;;;;5052629;28;20033;-75
2022/11/18 11:50:54;;;;;;;16.10;9.25;;;9.60;99.90;;;;;;5052202;28;20040;-75
2022/11/18 11:53:56;;;;;;;6.82;4.18;;;9.90;99.90;;;;;;5046817;28;20500;-73
2022/11/18 11:56:49;;;;;;;3.88;1.60;;;10.20;99.90;;;;;;5054178;28;20060;-76
2022/11/18 11:59:27;;;;;;;5.28;2.53;;;10.10;99.90;;;;;;5053716;28;20441;-66
2022/11/18 12:02:26;;;;;;;7.55;2.10;;;10.40;99.90;;;;;;5052294;28;20481;-78
2022/11/18 12:05:23;;;;;;;1.15;0.60;;;10.40;99.90;;;;;;5053152;28;20136;-77
2022/11/18 12:07:54;;;;;;;1.20;0.50;;;10.20;99.90;;;;;;5050766;28;20033;-76
2022/11/18 12:10:59;;;;;;;3.30;0.70;;;10.20;99.90;;;;;;5052593;28;20044;-71
2022/11/18 12:13:27;;;;;;;2.05;1.05;;;10.40;99.90;;;;;;5030652;28;20041;-69
2022/11/18 12:16:15;;;;;;;1.58;0.70;;;10.30;99.90;;;;;;5052524;28;20045;-77
2022/11/18 12:19:00;;;;;;;1.63;0.60;;;10.50;99.90;;;;;;5050485;28;20073;-77
2022/11/18 12:21:46;;;;;;;2.08;0.55;;;10.20;99.90;;;;;;5062645;28;20060;-77
2022/11/18 12:24:30;;;;;;;4.30;2.10;;;10.30;99.90;;;;;;5071606;28;20052;-77
2022/11/18 12:27:01;;;;;;;2.00;0.90;;;10.50;99.90;;;;;;5072315;28;20567;-76
2022/11/18 12:29:36;;;;;;;4.00;1.17;;;10.60;99.90;;;;;;5070660;28;20037;-76
2022/11/18 12:32:02;;;;;;;1.77;0.98;;;10.70;99.90;;;;;;5072006;28;20119;-76
2022/11/18 12:34:39;;;;;;;37.50;11.85;;;10.70;99.90;;;;;;5072558;28;20404;-68
2022/11/18 12:37:34;;;;;;;10.90;4.22;;;10.70;99.90;;;;;;5071460;28;20039;-67
2022/11/18 12:40:00;;;;;;;4.07;2.10;;;10.60;99.90;;;;;;5053896;28;20068;-73
2022/11/18 12:45:44;;;;;;;16.08;5.20;;;10.90;99.90;;;;;;5072355;28;20450;-75
2022/11/18 12:48:22;;;;;;;7.00;2.33;;;10.80;99.90;;;;;;5069570;28;20040;-72
2022/11/18 12:50:51;;;;;;;25.23;8.10;;;10.70;99.90;;;;;;5067364;28;20074;-72
2022/11/18 12:53:41;;;;;;;21.42;7.55;;;10.60;99.90;;;;;;5053216;28;20485;-73
2022/11/18 12:56:16;;;;;;;9.50;2.40;;;10.50;99.90;;;;;;5051350;28;20044;-71
2022/11/18 13:01:26;;;;;;;12.20;3.53;;;10.60;99.90;;;;;;5751938;23;20068;-69
2022/11/18 13:04:13;;;;;;;6.32;1.20;;;10.70;99.90;;;;;;5028585;28;20044;-70
2022/11/18 13:06:39;;;;;;;3.78;1.00;;;10.60;99.90;;;;;;5031641;28;20502;-68
2022/11/18 13:09:25;;;;;;;5.93;1.75;;;10.50;99.90;;;;;;5031313;28;20516;-67
2022/11/18 13:11:54;;;;;;;2.80;1.17;;;10.60;99.90;;;;;;5028007;28;20102;-68
2022/11/18 13:17:51;;;;;;;1.33;0.70;;;11.00;99.90;;;;;;5012030;28;20052;-67
2022/11/18 13:20:38;;;;;;;1.65;0.50;;;11.30;99.90;;;;;;5011950;28;20436;-68
2022/11/18 13:26:06;;;;;;;3.60;0.70;;;11.20;99.90;;;;;;5012621;28;20594;-67
2022/11/18 13:28:58;;;;;;;2.50;0.70;;;10.80;99.90;;;;;;5015305;28;20276;-67
2022/11/18 13:31:58;;;;;;;1.52;0.57;;;10.50;99.90;;;;;;5014988;28;20034;-67
2022/11/18 13:34:27;;;;;;;2.95;0.60;;;10.60;99.90;;;;;;5016923;28;20072;-66
2022/11/18 13:36:55;;;;;;;4.32;0.50;;;10.60;99.90;;;;;;5015532;28;20084;-68
2022/11/18 13:39:31;;;;;;;3.17;0.57;;;10.70;99.90;;;;;;5016120;28;20088;-67
2022/11/18 13:42:05;;;;;;;1.67;0.60;;;10.60;99.90;;;;;;5017392;28;20435;-66
2022/11/18 13:44:37;;;;;;;5.95;0.88;;;10.80;99.90;;;;;;5017119;28;20045;-67
2022/11/18 13:47:30;;;;;;;1.63;0.52;;;10.70;99.90;;;;;;5015769;28;20037;-66
2022/11/18 13:50:05;;;;;;;1.40;0.47;;;10.90;99.90;;;;;;5015162;28;20045;-67
2022/11/18 13:52:35;;;;;;;3.33;1.58;;;11.10;99.90;;;;;;5016269;28;20033;-66